sensor_id;sensor_type;location;lat;lon;timestamp;temperature;humidity
27072;DHT22;14613;46.308;25.288;2023-04-06T00:01:39;6.30;80.30
27072;DHT22;14613;46.308;25.288;2023-04-06T00:04:05;6.30;80.30
27072;DHT22;14613;46.308;25.288;2023-04-06T00:06:32;6.20;80.20
27072;DHT22;14613;46.308;25.288;2023-04-06T00:08:59;6.30;80.30
27072;DHT22;14613;46.308;25.288;2023-04-06T00:11:25;6.30;80.30
27072;DHT22;14613;46.308;25.288;2023-04-06T00:13:51;6.30;80.40
27072;DHT22;14613;46.308;25.288;2023-04-06T00:16:17;6.30;80.40
27072;DHT22;14613;46.308;25.288;2023-04-06T00:18:43;6.30;80.30
27072;DHT22;14613;46.308;25.288;2023-04-06T00:21:11;6.30;80.30
27072;DHT22;14613;46.308;25.288;2023-04-06T00:23:38;6.30;80.20
27072;DHT22;14613;46.308;25.288;2023-04-06T00:26:05;6.30;80.10
27072;DHT22;14613;46.308;25.288;2023-04-06T00:28:31;6.30;80.20
27072;DHT22;14613;46.308;25.288;2023-04-06T00:30:56;6.30;80.30
27072;DHT22;14613;46.308;25.288;2023-04-06T00:33:22;6.30;80.40
27072;DHT22;14613;46.308;25.288;2023-04-06T00:35:49;6.30;80.50
27072;DHT22;14613;46.308;25.288;2023-04-06T00:38:15;6.30;80.60
27072;DHT22;14613;46.308;25.288;2023-04-06T00:40:42;6.30;80.50
27072;DHT22;14613;46.308;25.288;2023-04-06T00:43:10;6.30;80.40
27072;DHT22;14613;46.308;25.288;2023-04-06T00:45:38;6.30;80.40
27072;DHT22;14613;46.308;25.288;2023-04-06T00:48:04;6.40;80.40
27072;DHT22;14613;46.308;25.288;2023-04-06T00:50:30;6.40;80.30
27072;DHT22;14613;46.308;25.288;2023-04-06T00:52:56;6.40;80.20
27072;DHT22;14613;46.308;25.288;2023-04-06T00:55:22;6.40;80.10
27072;DHT22;14613;46.308;25.288;2023-04-06T00:57:48;6.40;80.00
27072;DHT22;14613;46.308;25.288;2023-04-06T01:00:16;6.40;80.00
27072;DHT22;14613;46.308;25.288;2023-04-06T01:02:42;6.40;80.10
27072;DHT22;14613;46.308;25.288;2023-04-06T01:05:10;6.40;80.10
27072;DHT22;14613;46.308;25.288;2023-04-06T01:07:36;6.40;80.10
27072;DHT22;14613;46.308;25.288;2023-04-06T01:10:03;6.40;80.10
27072;DHT22;14613;46.308;25.288;2023-04-06T01:12:30;6.40;80.00
27072;DHT22;14613;46.308;25.288;2023-04-06T01:14:56;6.40;80.00
27072;DHT22;14613;46.308;25.288;2023-04-06T01:17:22;6.50;80.00
27072;DHT22;14613;46.308;25.288;2023-04-06T01:19:47;6.50;80.00
27072;DHT22;14613;46.308;25.288;2023-04-06T01:22:18;6.40;80.00
27072;DHT22;14613;46.308;25.288;2023-04-06T01:24:45;6.40;80.00
27072;DHT22;14613;46.308;25.288;2023-04-06T01:27:12;6.50;80.10
27072;DHT22;14613;46.308;25.288;2023-04-06T01:29:38;6.40;80.00
27072;DHT22;14613;46.308;25.288;2023-04-06T01:32:07;6.40;79.80
27072;DHT22;14613;46.308;25.288;2023-04-06T01:34:33;6.40;80.00
27072;DHT22;14613;46.308;25.288;2023-04-06T01:36:59;6.40;80.00
27072;DHT22;14613;46.308;25.288;2023-04-06T01:39:25;6.30;80.00
27072;DHT22;14613;46.308;25.288;2023-04-06T01:41:51;6.30;80.30
27072;DHT22;14613;46.308;25.288;2023-04-06T01:44:17;6.30;80.30
27072;DHT22;14613;46.308;25.288;2023-04-06T01:46:44;6.30;80.40
27072;DHT22;14613;46.308;25.288;2023-04-06T01:49:11;6.30;80.40
27072;DHT22;14613;46.308;25.288;2023-04-06T01:51:37;6.30;80.30
27072;DHT22;14613;46.308;25.288;2023-04-06T01:54:03;6.30;80.30
27072;DHT22;14613;46.308;25.288;2023-04-06T01:56:29;6.20;80.20
27072;DHT22;14613;46.308;25.288;2023-04-06T01:58:55;6.30;80.20
27072;DHT22;14613;46.308;25.288;2023-04-06T02:01:22;6.20;80.20
27072;DHT22;14613;46.308;25.288;2023-04-06T02:03:47;6.20;80.10
27072;DHT22;14613;46.308;25.288;2023-04-06T02:06:13;6.20;80.10
27072;DHT22;14613;46.308;25.288;2023-04-06T02:08:39;6.20;80.20
27072;DHT22;14613;46.308;25.288;2023-04-06T02:11:05;6.20;80.30
27072;DHT22;14613;46.308;25.288;2023-04-06T02:13:31;6.20;80.30
27072;DHT22;14613;46.308;25.288;2023-04-06T02:15:57;6.10;80.20
27072;DHT22;14613;46.308;25.288;2023-04-06T02:18:23;6.10;80.20
27072;DHT22;14613;46.308;25.288;2023-04-06T02:20:48;6.10;80.30
27072;DHT22;14613;46.308;25.288;2023-04-06T02:23:14;6.10;80.40
27072;DHT22;14613;46.308;25.288;2023-04-06T02:25:40;6.10;80.60
27072;DHT22;14613;46.308;25.288;2023-04-06T02:28:06;6.10;80.60
27072;DHT22;14613;46.308;25.288;2023-04-06T02:30:32;6.00;80.60
27072;DHT22;14613;46.308;25.288;2023-04-06T02:33:02;6.00;80.50
27072;DHT22;14613;46.308;25.288;2023-04-06T02:35:31;6.00;80.50
27072;DHT22;14613;46.308;25.288;2023-04-06T02:37:57;6.00;80.60
27072;DHT22;14613;46.308;25.288;2023-04-06T02:40:22;5.90;80.60
27072;DHT22;14613;46.308;25.288;2023-04-06T02:42:48;5.90;80.70
27072;DHT22;14613;46.308;25.288;2023-04-06T02:45:14;5.80;80.80
27072;DHT22;14613;46.308;25.288;2023-04-06T02:47:41;5.80;80.90
27072;DHT22;14613;46.308;25.288;2023-04-06T02:50:07;5.70;81.00
27072;DHT22;14613;46.308;25.288;2023-04-06T02:52:33;5.70;81.20
27072;DHT22;14613;46.308;25.288;2023-04-06T02:54:59;5.70;81.30
27072;DHT22;14613;46.308;25.288;2023-04-06T02:57:24;5.70;81.30
27072;DHT22;14613;46.308;25.288;2023-04-06T02:59:50;5.70;81.20
27072;DHT22;14613;46.308;25.288;2023-04-06T03:02:16;5.70;81.20
27072;DHT22;14613;46.308;25.288;2023-04-06T03:04:44;5.70;81.10
27072;DHT22;14613;46.308;25.288;2023-04-06T03:07:10;5.70;81.10
27072;DHT22;14613;46.308;25.288;2023-04-06T03:09:39;5.70;81.20
27072;DHT22;14613;46.308;25.288;2023-04-06T03:12:05;5.70;81.20
27072;DHT22;14613;46.308;25.288;2023-04-06T03:14:31;5.70;81.20
27072;DHT22;14613;46.308;25.288;2023-04-06T03:16:57;5.60;81.30
27072;DHT22;14613;46.308;25.288;2023-04-06T03:19:23;5.60;81.30
27072;DHT22;14613;46.308;25.288;2023-04-06T03:21:49;5.60;81.30
27072;DHT22;14613;46.308;25.288;2023-04-06T03:24:15;5.60;81.30
27072;DHT22;14613;46.308;25.288;2023-04-06T03:26:41;5.60;81.20
27072;DHT22;14613;46.308;25.288;2023-04-06T03:29:07;5.60;81.20
27072;DHT22;14613;46.308;25.288;2023-04-06T03:31:33;5.60;81.30
27072;DHT22;14613;46.308;25.288;2023-04-06T03:33:59;5.50;81.30
27072;DHT22;14613;46.308;25.288;2023-04-06T03:36:25;5.50;81.50
27072;DHT22;14613;46.308;25.288;2023-04-06T03:38:52;5.50;81.50
27072;DHT22;14613;46.308;25.288;2023-04-06T03:41:19;5.50;81.60
27072;DHT22;14613;46.308;25.288;2023-04-06T03:43:45;5.50;81.60
27072;DHT22;14613;46.308;25.288;2023-04-06T03:46:11;5.40;81.60
27072;DHT22;14613;46.308;25.288;2023-04-06T03:48:37;5.40;81.50
27072;DHT22;14613;46.308;25.288;2023-04-06T03:51:03;5.40;81.60
27072;DHT22;14613;46.308;25.288;2023-04-06T03:53:28;5.40;81.60
27072;DHT22;14613;46.308;25.288;2023-04-06T03:55:55;5.40;81.60
27072;DHT22;14613;46.308;25.288;2023-04-06T03:58:21;5.50;81.60
27072;DHT22;14613;46.308;25.288;2023-04-06T04:00:46;5.50;81.60
27072;DHT22;14613;46.308;25.288;2023-04-06T04:03:12;5.50;81.60
27072;DHT22;14613;46.308;25.288;2023-04-06T04:05:38;5.50;81.60
27072;DHT22;14613;46.308;25.288;2023-04-06T04:08:04;5.50;81.50
27072;DHT22;14613;46.308;25.288;2023-04-06T04:10:30;5.50;81.50
27072;DHT22;14613;46.308;25.288;2023-04-06T04:12:56;5.40;81.30
27072;DHT22;14613;46.308;25.288;2023-04-06T04:15:21;5.40;81.50
27072;DHT22;14613;46.308;25.288;2023-04-06T04:17:47;5.40;81.50
27072;DHT22;14613;46.308;25.288;2023-04-06T04:20:15;5.40;81.50
27072;DHT22;14613;46.308;25.288;2023-04-06T04:22:41;5.40;81.40
27072;DHT22;14613;46.308;25.288;2023-04-06T04:25:08;5.30;81.50
27072;DHT22;14613;46.308;25.288;2023-04-06T04:27:34;5.30;81.50
27072;DHT22;14613;46.308;25.288;2023-04-06T04:30:00;5.30;82.40
27072;DHT22;14613;46.308;25.288;2023-04-06T04:32:26;5.20;81.60
27072;DHT22;14613;46.308;25.288;2023-04-06T04:34:53;5.20;81.80
27072;DHT22;14613;46.308;25.288;2023-04-06T04:37:19;5.20;81.80
27072;DHT22;14613;46.308;25.288;2023-04-06T04:39:45;5.20;81.80
27072;DHT22;14613;46.308;25.288;2023-04-06T04:42:11;5.20;81.80
27072;DHT22;14613;46.308;25.288;2023-04-06T04:44:37;5.10;81.70
27072;DHT22;14613;46.308;25.288;2023-04-06T04:47:03;5.10;81.80
27072;DHT22;14613;46.308;25.288;2023-04-06T04:49:28;5.00;82.00
27072;DHT22;14613;46.308;25.288;2023-04-06T04:51:54;4.90;82.10
27072;DHT22;14613;46.308;25.288;2023-04-06T04:54:20;4.90;82.30
27072;DHT22;14613;46.308;25.288;2023-04-06T04:56:46;4.80;82.30
27072;DHT22;14613;46.308;25.288;2023-04-06T04:59:12;4.80;82.40
27072;DHT22;14613;46.308;25.288;2023-04-06T05:01:37;4.80;82.50
27072;DHT22;14613;46.308;25.288;2023-04-06T05:04:03;4.80;82.50
27072;DHT22;14613;46.308;25.288;2023-04-06T05:06:29;4.70;82.60
27072;DHT22;14613;46.308;25.288;2023-04-06T05:08:55;4.70;82.80
27072;DHT22;14613;46.308;25.288;2023-04-06T05:11:21;4.70;82.60
27072;DHT22;14613;46.308;25.288;2023-04-06T05:13:47;4.80;82.60
27072;DHT22;14613;46.308;25.288;2023-04-06T05:16:13;4.80;82.60
27072;DHT22;14613;46.308;25.288;2023-04-06T05:18:39;4.70;82.50
27072;DHT22;14613;46.308;25.288;2023-04-06T05:21:05;4.70;82.60
27072;DHT22;14613;46.308;25.288;2023-04-06T05:23:31;4.70;82.70
27072;DHT22;14613;46.308;25.288;2023-04-06T05:25:56;4.60;82.80
27072;DHT22;14613;46.308;25.288;2023-04-06T05:28:22;4.60;82.80
27072;DHT22;14613;46.308;25.288;2023-04-06T05:30:48;4.60;83.00
27072;DHT22;14613;46.308;25.288;2023-04-06T05:33:14;4.50;83.20
27072;DHT22;14613;46.308;25.288;2023-04-06T05:35:40;4.50;83.20
27072;DHT22;14613;46.308;25.288;2023-04-06T05:38:08;4.60;83.20
27072;DHT22;14613;46.308;25.288;2023-04-06T05:40:36;4.60;83.20
27072;DHT22;14613;46.308;25.288;2023-04-06T05:43:03;4.60;83.10
27072;DHT22;14613;46.308;25.288;2023-04-06T05:45:30;4.50;83.20
27072;DHT22;14613;46.308;25.288;2023-04-06T05:47:56;4.50;83.30
27072;DHT22;14613;46.308;25.288;2023-04-06T05:50:21;4.50;83.40
27072;DHT22;14613;46.308;25.288;2023-04-06T05:52:48;4.50;83.40
27072;DHT22;14613;46.308;25.288;2023-04-06T05:55:14;4.50;83.40
27072;DHT22;14613;46.308;25.288;2023-04-06T05:57:40;4.60;83.40
27072;DHT22;14613;46.308;25.288;2023-04-06T06:00:07;4.50;83.50
27072;DHT22;14613;46.308;25.288;2023-04-06T06:02:35;4.50;83.50
27072;DHT22;14613;46.308;25.288;2023-04-06T06:05:01;4.60;83.50
27072;DHT22;14613;46.308;25.288;2023-04-06T06:07:27;4.50;83.40
27072;DHT22;14613;46.308;25.288;2023-04-06T06:09:56;4.50;83.60
27072;DHT22;14613;46.308;25.288;2023-04-06T06:12:23;4.50;83.70
27072;DHT22;14613;46.308;25.288;2023-04-06T06:14:49;4.50;83.80
27072;DHT22;14613;46.308;25.288;2023-04-06T06:17:15;4.50;83.80
27072;DHT22;14613;46.308;25.288;2023-04-06T06:19:41;4.50;83.80
27072;DHT22;14613;46.308;25.288;2023-04-06T06:22:06;4.50;83.80
27072;DHT22;14613;46.308;25.288;2023-04-06T06:24:33;4.60;84.00
27072;DHT22;14613;46.308;25.288;2023-04-06T06:26:58;4.60;83.80
27072;DHT22;14613;46.308;25.288;2023-04-06T06:29:24;4.60;83.70
27072;DHT22;14613;46.308;25.288;2023-04-06T06:31:50;4.60;83.80
27072;DHT22;14613;46.308;25.288;2023-04-06T06:34:16;4.70;83.80
27072;DHT22;14613;46.308;25.288;2023-04-06T06:36:42;4.70;83.70
27072;DHT22;14613;46.308;25.288;2023-04-06T06:39:08;4.70;83.70
27072;DHT22;14613;46.308;25.288;2023-04-06T06:41:33;4.70;83.70
27072;DHT22;14613;46.308;25.288;2023-04-06T06:43:59;4.70;83.80
27072;DHT22;14613;46.308;25.288;2023-04-06T06:46:25;4.70;84.70
27072;DHT22;14613;46.308;25.288;2023-04-06T06:48:51;4.80;84.00
27072;DHT22;14613;46.308;25.288;2023-04-06T06:51:17;4.80;84.10
27072;DHT22;14613;46.308;25.288;2023-04-06T06:53:43;4.80;84.10
27072;DHT22;14613;46.308;25.288;2023-04-06T06:56:08;4.80;84.10
27072;DHT22;14613;46.308;25.288;2023-04-06T06:58:34;4.90;84.20
27072;DHT22;14613;46.308;25.288;2023-04-06T07:01:00;4.90;84.10
27072;DHT22;14613;46.308;25.288;2023-04-06T07:03:26;4.90;84.10
27072;DHT22;14613;46.308;25.288;2023-04-06T07:05:52;4.90;84.20
27072;DHT22;14613;46.308;25.288;2023-04-06T07:08:22;4.90;84.20
27072;DHT22;14613;46.308;25.288;2023-04-06T07:10:49;5.00;84.40
27072;DHT22;14613;46.308;25.288;2023-04-06T07:13:16;5.10;84.30
27072;DHT22;14613;46.308;25.288;2023-04-06T07:15:47;5.10;84.10
27072;DHT22;14613;46.308;25.288;2023-04-06T07:18:13;5.30;84.10
27072;DHT22;14613;46.308;25.288;2023-04-06T07:20:39;5.30;83.90
27072;DHT22;14613;46.308;25.288;2023-04-06T07:23:05;5.40;84.00
27072;DHT22;14613;46.308;25.288;2023-04-06T07:25:31;5.50;84.00
27072;DHT22;14613;46.308;25.288;2023-04-06T07:27:56;5.50;83.90
27072;DHT22;14613;46.308;25.288;2023-04-06T07:30:22;5.60;83.90
27072;DHT22;14613;46.308;25.288;2023-04-06T07:32:50;5.70;83.70
27072;DHT22;14613;46.308;25.288;2023-04-06T07:35:16;5.70;83.60
27072;DHT22;14613;46.308;25.288;2023-04-06T07:37:42;5.80;83.60
27072;DHT22;14613;46.308;25.288;2023-04-06T07:40:08;5.90;83.50
27072;DHT22;14613;46.308;25.288;2023-04-06T07:42:34;5.90;83.30
27072;DHT22;14613;46.308;25.288;2023-04-06T07:45:00;6.00;83.20
27072;DHT22;14613;46.308;25.288;2023-04-06T07:47:25;6.10;83.00
27072;DHT22;14613;46.308;25.288;2023-04-06T07:49:51;6.10;82.90
27072;DHT22;14613;46.308;25.288;2023-04-06T07:52:17;6.20;82.80
27072;DHT22;14613;46.308;25.288;2023-04-06T07:54:43;6.20;82.60
27072;DHT22;14613;46.308;25.288;2023-04-06T07:57:09;6.20;82.60
27072;DHT22;14613;46.308;25.288;2023-04-06T07:59:35;6.30;82.70
27072;DHT22;14613;46.308;25.288;2023-04-06T08:02:01;6.40;83.40
27072;DHT22;14613;46.308;25.288;2023-04-06T08:04:27;6.50;82.50
27072;DHT22;14613;46.308;25.288;2023-04-06T08:06:52;6.50;82.40
27072;DHT22;14613;46.308;25.288;2023-04-06T08:09:18;6.60;82.30
27072;DHT22;14613;46.308;25.288;2023-04-06T08:11:44;6.70;82.30
27072;DHT22;14613;46.308;25.288;2023-04-06T08:14:11;6.70;82.00
27072;DHT22;14613;46.308;25.288;2023-04-06T08:16:37;6.70;82.30
27072;DHT22;14613;46.308;25.288;2023-04-06T08:19:03;6.70;82.30
27072;DHT22;14613;46.308;25.288;2023-04-06T08:21:29;6.80;82.40
27072;DHT22;14613;46.308;25.288;2023-04-06T08:23:55;6.80;82.40
27072;DHT22;14613;46.308;25.288;2023-04-06T08:26:21;6.90;82.30
27072;DHT22;14613;46.308;25.288;2023-04-06T08:28:47;7.00;82.20
27072;DHT22;14613;46.308;25.288;2023-04-06T08:31:13;7.10;81.90
27072;DHT22;14613;46.308;25.288;2023-04-06T08:33:39;7.10;82.00
27072;DHT22;14613;46.308;25.288;2023-04-06T08:36:12;7.10;81.80
27072;DHT22;14613;46.308;25.288;2023-04-06T08:38:39;7.20;81.70
27072;DHT22;14613;46.308;25.288;2023-04-06T08:41:12;7.10;81.40
27072;DHT22;14613;46.308;25.288;2023-04-06T08:43:44;7.00;81.20
27072;DHT22;14613;46.308;25.288;2023-04-06T08:46:11;7.00;81.20
27072;DHT22;14613;46.308;25.288;2023-04-06T08:48:38;6.90;81.30
27072;DHT22;14613;46.308;25.288;2023-04-06T08:51:05;6.90;81.40
27072;DHT22;14613;46.308;25.288;2023-04-06T08:53:31;7.00;81.40
27072;DHT22;14613;46.308;25.288;2023-04-06T08:55:58;7.00;81.20
27072;DHT22;14613;46.308;25.288;2023-04-06T08:58:24;7.00;80.80
27072;DHT22;14613;46.308;25.288;2023-04-06T09:00:51;7.00;80.80
27072;DHT22;14613;46.308;25.288;2023-04-06T09:03:18;7.00;80.90
27072;DHT22;14613;46.308;25.288;2023-04-06T09:05:46;7.10;80.90
27072;DHT22;14613;46.308;25.288;2023-04-06T09:08:13;7.10;80.80
27072;DHT22;14613;46.308;25.288;2023-04-06T09:10:42;7.10;80.60
27072;DHT22;14613;46.308;25.288;2023-04-06T09:13:08;7.20;80.60
27072;DHT22;14613;46.308;25.288;2023-04-06T09:15:34;7.20;80.50
27072;DHT22;14613;46.308;25.288;2023-04-06T09:18:01;7.20;80.40
27072;DHT22;14613;46.308;25.288;2023-04-06T09:20:27;7.20;80.40
27072;DHT22;14613;46.308;25.288;2023-04-06T09:22:54;7.20;80.50
27072;DHT22;14613;46.308;25.288;2023-04-06T09:25:24;7.20;80.40
27072;DHT22;14613;46.308;25.288;2023-04-06T09:28:03;7.20;80.20
27072;DHT22;14613;46.308;25.288;2023-04-06T09:30:29;7.20;80.80
27072;DHT22;14613;46.308;25.288;2023-04-06T09:32:57;7.10;79.80
27072;DHT22;14613;46.308;25.288;2023-04-06T09:35:23;7.20;79.80
27072;DHT22;14613;46.308;25.288;2023-04-06T09:37:52;7.10;79.80
27072;DHT22;14613;46.308;25.288;2023-04-06T09:40:18;7.20;79.90
27072;DHT22;14613;46.308;25.288;2023-04-06T09:42:48;7.20;79.70
27072;DHT22;14613;46.308;25.288;2023-04-06T09:45:17;7.10;79.50
27072;DHT22;14613;46.308;25.288;2023-04-06T09:47:44;7.10;79.30
27072;DHT22;14613;46.308;25.288;2023-04-06T09:50:12;7.00;80.30
27072;DHT22;14613;46.308;25.288;2023-04-06T09:52:48;7.00;79.60
27072;DHT22;14613;46.308;25.288;2023-04-06T09:55:29;6.90;79.50
27072;DHT22;14613;46.308;25.288;2023-04-06T09:58:26;6.90;79.60
27072;DHT22;14613;46.308;25.288;2023-04-06T10:01:13;6.90;79.70
27072;DHT22;14613;46.308;25.288;2023-04-06T10:04:01;6.90;79.50
27072;DHT22;14613;46.308;25.288;2023-04-06T10:06:31;6.90;79.40
27072;DHT22;14613;46.308;25.288;2023-04-06T10:09:03;6.80;79.30
27072;DHT22;14613;46.308;25.288;2023-04-06T10:11:30;6.70;79.40
27072;DHT22;14613;46.308;25.288;2023-04-06T10:13:57;6.70;79.70
27072;DHT22;14613;46.308;25.288;2023-04-06T10:16:22;6.60;79.60
27072;DHT22;14613;46.308;25.288;2023-04-06T10:18:56;6.60;79.50
27072;DHT22;14613;46.308;25.288;2023-04-06T10:21:25;6.50;79.60
27072;DHT22;14613;46.308;25.288;2023-04-06T10:24:02;6.50;79.70
27072;DHT22;14613;46.308;25.288;2023-04-06T10:26:31;6.50;79.90
27072;DHT22;14613;46.308;25.288;2023-04-06T10:29:03;6.50;80.00
27072;DHT22;14613;46.308;25.288;2023-04-06T10:31:29;6.60;80.10
27072;DHT22;14613;46.308;25.288;2023-04-06T10:34:00;6.60;80.00
27072;DHT22;14613;46.308;25.288;2023-04-06T10:36:28;6.60;79.90
27072;DHT22;14613;46.308;25.288;2023-04-06T10:38:58;6.60;79.90
27072;DHT22;14613;46.308;25.288;2023-04-06T10:41:32;6.70;79.90
27072;DHT22;14613;46.308;25.288;2023-04-06T10:43:59;6.70;79.90
27072;DHT22;14613;46.308;25.288;2023-04-06T10:46:30;6.80;79.90
27072;DHT22;14613;46.308;25.288;2023-04-06T10:48:57;6.80;79.70
27072;DHT22;14613;46.308;25.288;2023-04-06T10:51:27;6.90;79.60
27072;DHT22;14613;46.308;25.288;2023-04-06T10:53:54;6.90;79.60
27072;DHT22;14613;46.308;25.288;2023-04-06T10:56:24;7.00;79.30
27072;DHT22;14613;46.308;25.288;2023-04-06T10:58:54;6.90;79.00
27072;DHT22;14613;46.308;25.288;2023-04-06T11:01:24;7.00;79.30
27072;DHT22;14613;46.308;25.288;2023-04-06T11:03:56;7.00;79.00
27072;DHT22;14613;46.308;25.288;2023-04-06T11:06:27;7.00;78.80
27072;DHT22;14613;46.308;25.288;2023-04-06T11:08:55;7.00;78.70
27072;DHT22;14613;46.308;25.288;2023-04-06T11:11:23;7.00;78.60
27072;DHT22;14613;46.308;25.288;2023-04-06T11:13:51;6.90;78.70
27072;DHT22;14613;46.308;25.288;2023-04-06T11:18:51;6.90;79.10
27072;DHT22;14613;46.308;25.288;2023-04-06T11:21:17;6.90;79.00
27072;DHT22;14613;46.308;25.288;2023-04-06T11:23:43;6.90;79.20
27072;DHT22;14613;46.308;25.288;2023-04-06T11:26:13;7.00;79.10
27072;DHT22;14613;46.308;25.288;2023-04-06T11:28:43;7.00;79.20
27072;DHT22;14613;46.308;25.288;2023-04-06T11:31:10;7.00;79.10
27072;DHT22;14613;46.308;25.288;2023-04-06T11:33:37;7.00;79.00
27072;DHT22;14613;46.308;25.288;2023-04-06T11:36:07;7.10;79.30
27072;DHT22;14613;46.308;25.288;2023-04-06T11:38:33;7.10;79.10
27072;DHT22;14613;46.308;25.288;2023-04-06T11:41:00;7.10;79.10
27072;DHT22;14613;46.308;25.288;2023-04-06T11:43:30;7.20;79.30
27072;DHT22;14613;46.308;25.288;2023-04-06T11:46:01;7.30;79.30
27072;DHT22;14613;46.308;25.288;2023-04-06T11:48:30;7.40;79.20
27072;DHT22;14613;46.308;25.288;2023-04-06T11:50:58;7.40;79.20
27072;DHT22;14613;46.308;25.288;2023-04-06T11:53:29;7.40;79.10
27072;DHT22;14613;46.308;25.288;2023-04-06T11:55:56;7.50;79.00
27072;DHT22;14613;46.308;25.288;2023-04-06T11:58:22;7.50;78.90
27072;DHT22;14613;46.308;25.288;2023-04-06T12:00:47;7.50;78.90
27072;DHT22;14613;46.308;25.288;2023-04-06T12:03:14;7.50;78.70
27072;DHT22;14613;46.308;25.288;2023-04-06T12:05:40;7.50;78.70
27072;DHT22;14613;46.308;25.288;2023-04-06T12:08:06;7.60;78.80
27072;DHT22;14613;46.308;25.288;2023-04-06T12:10:31;7.70;78.70
27072;DHT22;14613;46.308;25.288;2023-04-06T12:12:57;7.80;78.50
27072;DHT22;14613;46.308;25.288;2023-04-06T12:15:23;7.80;78.30
27072;DHT22;14613;46.308;25.288;2023-04-06T12:17:49;7.80;78.10
27072;DHT22;14613;46.308;25.288;2023-04-06T12:20:18;7.80;78.00
27072;DHT22;14613;46.308;25.288;2023-04-06T12:22:43;7.80;77.80
27072;DHT22;14613;46.308;25.288;2023-04-06T12:25:09;7.80;77.80
27072;DHT22;14613;46.308;25.288;2023-04-06T12:27:35;7.80;77.80
27072;DHT22;14613;46.308;25.288;2023-04-06T12:30:01;7.80;77.70
27072;DHT22;14613;46.308;25.288;2023-04-06T12:32:28;7.70;77.80
27072;DHT22;14613;46.308;25.288;2023-04-06T12:34:54;7.70;77.80
27072;DHT22;14613;46.308;25.288;2023-04-06T12:37:19;7.60;77.90
27072;DHT22;14613;46.308;25.288;2023-04-06T12:39:46;7.60;77.90
27072;DHT22;14613;46.308;25.288;2023-04-06T12:42:12;7.60;77.90
27072;DHT22;14613;46.308;25.288;2023-04-06T12:44:39;7.60;78.00
27072;DHT22;14613;46.308;25.288;2023-04-06T12:47:05;7.60;78.10
27072;DHT22;14613;46.308;25.288;2023-04-06T12:49:32;7.60;77.90
27072;DHT22;14613;46.308;25.288;2023-04-06T12:51:58;7.60;77.90
27072;DHT22;14613;46.308;25.288;2023-04-06T12:54:24;7.50;78.00
27072;DHT22;14613;46.308;25.288;2023-04-06T12:56:52;7.50;78.20
27072;DHT22;14613;46.308;25.288;2023-04-06T12:59:17;7.60;78.20
27072;DHT22;14613;46.308;25.288;2023-04-06T13:01:43;7.60;78.20
27072;DHT22;14613;46.308;25.288;2023-04-06T13:04:10;7.70;78.40
27072;DHT22;14613;46.308;25.288;2023-04-06T13:06:35;7.70;78.20
27072;DHT22;14613;46.308;25.288;2023-04-06T13:09:01;7.90;78.20
27072;DHT22;14613;46.308;25.288;2023-04-06T13:11:29;7.90;77.90
27072;DHT22;14613;46.308;25.288;2023-04-06T13:13:55;7.90;77.70
27072;DHT22;14613;46.308;25.288;2023-04-06T13:16:21;8.00;77.80
27072;DHT22;14613;46.308;25.288;2023-04-06T13:18:47;8.00;77.50
27072;DHT22;14613;46.308;25.288;2023-04-06T13:21:15;8.00;77.50
27072;DHT22;14613;46.308;25.288;2023-04-06T13:23:42;8.00;77.40
27072;DHT22;14613;46.308;25.288;2023-04-06T13:26:07;7.90;77.30
27072;DHT22;14613;46.308;25.288;2023-04-06T13:28:36;8.00;77.10
27072;DHT22;14613;46.308;25.288;2023-04-06T13:31:05;7.90;77.90
27072;DHT22;14613;46.308;25.288;2023-04-06T13:33:32;7.90;77.10
27072;DHT22;14613;46.308;25.288;2023-04-06T13:35:58;7.80;77.20
27072;DHT22;14613;46.308;25.288;2023-04-06T13:38:24;7.80;77.30
27072;DHT22;14613;46.308;25.288;2023-04-06T13:40:50;7.80;77.10
27072;DHT22;14613;46.308;25.288;2023-04-06T13:43:16;7.70;77.10
27072;DHT22;14613;46.308;25.288;2023-04-06T13:45:53;7.70;77.20
27072;DHT22;14613;46.308;25.288;2023-04-06T13:48:20;7.70;77.10
27072;DHT22;14613;46.308;25.288;2023-04-06T13:50:46;7.60;76.80
27072;DHT22;14613;46.308;25.288;2023-04-06T13:53:12;7.50;76.80
27072;DHT22;14613;46.308;25.288;2023-04-06T13:55:38;7.40;76.70
27072;DHT22;14613;46.308;25.288;2023-04-06T13:58:04;7.30;76.70
27072;DHT22;14613;46.308;25.288;2023-04-06T14:00:29;7.20;77.10
27072;DHT22;14613;46.308;25.288;2023-04-06T14:02:55;7.20;77.30
27072;DHT22;14613;46.308;25.288;2023-04-06T14:05:22;7.20;77.30
27072;DHT22;14613;46.308;25.288;2023-04-06T14:07:49;7.10;77.00
27072;DHT22;14613;46.308;25.288;2023-04-06T14:10:15;7.10;77.00
27072;DHT22;14613;46.308;25.288;2023-04-06T14:12:44;7.00;77.00
27072;DHT22;14613;46.308;25.288;2023-04-06T14:15:13;6.90;77.30
27072;DHT22;14613;46.308;25.288;2023-04-06T14:17:39;6.90;77.40
27072;DHT22;14613;46.308;25.288;2023-04-06T14:20:08;6.90;77.30
27072;DHT22;14613;46.308;25.288;2023-04-06T14:22:40;6.80;77.10
27072;DHT22;14613;46.308;25.288;2023-04-06T14:25:07;6.80;77.30
27072;DHT22;14613;46.308;25.288;2023-04-06T14:27:32;6.70;77.20
27072;DHT22;14613;46.308;25.288;2023-04-06T14:29:58;6.70;77.20
27072;DHT22;14613;46.308;25.288;2023-04-06T14:32:24;6.60;77.20
27072;DHT22;14613;46.308;25.288;2023-04-06T14:34:51;6.60;77.40
27072;DHT22;14613;46.308;25.288;2023-04-06T14:37:16;6.60;77.40
27072;DHT22;14613;46.308;25.288;2023-04-06T14:39:43;6.60;77.50
27072;DHT22;14613;46.308;25.288;2023-04-06T14:42:09;6.60;77.50
27072;DHT22;14613;46.308;25.288;2023-04-06T14:44:35;6.60;77.60
27072;DHT22;14613;46.308;25.288;2023-04-06T14:47:02;6.60;77.70
27072;DHT22;14613;46.308;25.288;2023-04-06T14:49:29;6.60;77.70
27072;DHT22;14613;46.308;25.288;2023-04-06T14:51:55;6.60;77.70
27072;DHT22;14613;46.308;25.288;2023-04-06T14:54:21;6.60;78.40
27072;DHT22;14613;46.308;25.288;2023-04-06T14:56:47;6.60;77.60
27072;DHT22;14613;46.308;25.288;2023-04-06T14:59:12;6.60;77.40
27072;DHT22;14613;46.308;25.288;2023-04-06T15:01:38;6.60;77.50
27072;DHT22;14613;46.308;25.288;2023-04-06T15:04:04;6.50;77.50
27072;DHT22;14613;46.308;25.288;2023-04-06T15:06:30;6.50;77.70
27072;DHT22;14613;46.308;25.288;2023-04-06T15:08:57;6.60;77.80
27072;DHT22;14613;46.308;25.288;2023-04-06T15:11:23;6.50;77.80
27072;DHT22;14613;46.308;25.288;2023-04-06T15:13:48;6.60;77.80
27072;DHT22;14613;46.308;25.288;2023-04-06T15:16:15;6.60;77.70
27072;DHT22;14613;46.308;25.288;2023-04-06T15:18:40;6.60;77.70
27072;DHT22;14613;46.308;25.288;2023-04-06T15:21:06;6.60;77.70
27072;DHT22;14613;46.308;25.288;2023-04-06T15:23:33;6.60;77.70
27072;DHT22;14613;46.308;25.288;2023-04-06T15:26:00;6.60;77.70
27072;DHT22;14613;46.308;25.288;2023-04-06T15:28:26;6.70;77.80
27072;DHT22;14613;46.308;25.288;2023-04-06T15:30:54;6.70;77.70